HOURLY OBS INDEX

062

Central Tablelands - north

MUDGEE AIRPORT AWS

Site: 062101
Alt: 471.0m
4km NE of MUDGEE


  Time     Wind        Temp  DP   Baro     Rain since   Rain past  Vis(m), Cloud(base in m), Weather
  local        km/h                         9am  last   hr   10m    
Thu 09:00  WSW 22/ 28  14.7  0.9  1013.9    0.0   0.0   0.0   0.0   10000 
Thu 09:30  WSW 19/ 28  15.2  2.7  1013.9    0.0   0.0   0.0   0.0   10000 
Thu 10:00  WSW 26/ 37  15.6  3.1  1014.0    0.0   0.0   0.0   0.0   10000 
Thu 10:30  WSW 22/ 33  15.7  2.8  1014.0    0.0   0.0   0.0   0.0   10000 
Thu 11:00  WSW 24/ 32  16.4  3.1  1013.9    0.0   0.0   0.0   0.0   10000 
Thu 11:30    W 32/ 45  16.4  2.4  1013.6    0.0   0.0   0.0   0.0   10000 
Thu 12:00    W 30/ 41  16.7  3.1  1013.3    0.0   0.0   0.0   0.0   10000 
Thu 12:30    W 28/ 35  17.4  3.3  1012.9    0.0   0.0   0.0   0.0   10000 
Thu 13:00    W 32/ 41  18.0  3.9  1012.3    0.0   0.0   0.0   0.0   10000 
Thu 13:05    W 28/ 48  17.6  3.1  1012.2    0.0   0.0  ----   0.0   10000 
Thu 13:30    W 33/ 43  17.5  2.7  1012.2    0.0   0.0   0.0   0.0   10000 
Thu 14:00    W 30/ 43  17.2  1.6  1012.3    0.0   0.0   0.0   0.0   10000 

NULLO MOUNTAIN AWS

Site: 062100
Alt: 1130.0m
62km ESE of MUDGEE


  Time     Wind        Temp  DP   Baro     Rain since   Rain past  Vis(m), Cloud(base in m), Weather
  local        km/h                         9am  last   hr   10m    
Thu 09:00  WNW 15/ 24  10.5 -0.9  ------    0.0   0.0   0.0   0.0   ----- 
Thu 09:30    W 13/ 26  10.3 -1.4  ------    0.0   0.0   0.0   0.0   ----- 
Thu 10:00    W 13/ 24  10.9 -1.5  ------    0.0   0.0   0.0   0.0   ----- 
Thu 10:30    W 13/ 30  11.5 -0.3  ------    0.0   0.0   0.0   0.0   ----- 
Thu 11:00  WNW 13/ 33  12.0  0.5  ------    0.0   0.0   0.0   0.0   ----- 
Thu 11:30    W 17/ 32  11.9  1.0  ------    0.0   0.0   0.0   0.0   ----- 
Thu 12:00    W 19/ 37  12.5  1.2  ------    0.0   0.0   0.0   0.0   ----- 
Thu 12:30    W 13/ 24  12.7  1.4  ------    0.0   0.0   0.0   0.0   ----- 
Thu 13:00    W 15/ 28  13.4  1.4  ------    0.0   0.0   0.0   0.0   ----- 
Thu 13:30    W 17/ 33  12.9  0.3  ------    0.0   0.0   0.0   0.0   ----- 
Thu 14:00    W 17/ 32  13.0  0.1  ------    0.0   0.0   0.0   0.0   -----